sensor_id;sensor_type;location;lat;lon;timestamp;temperature;humidity
72114;SHT31;59989;46.220;19.888;2022-12-18T00:00:26;-1.65;91.17
72114;SHT31;59989;46.220;19.888;2022-12-18T00:03:28;-1.69;91.24
72114;SHT31;59989;46.220;19.888;2022-12-18T00:06:32;-1.65;91.49
72114;SHT31;59989;46.220;19.888;2022-12-18T00:09:37;-1.69;91.51
72114;SHT31;59989;46.220;19.888;2022-12-18T00:12:41;-1.70;91.69
72114;SHT31;59989;46.220;19.888;2022-12-18T00:15:43;-1.72;91.76
72114;SHT31;59989;46.220;19.888;2022-12-18T00:18:46;-1.75;91.88
72114;SHT31;59989;46.220;19.888;2022-12-18T00:21:49;-1.78;91.74
72114;SHT31;59989;46.220;19.888;2022-12-18T00:24:51;-1.76;91.97
72114;SHT31;59989;46.220;19.888;2022-12-18T00:27:54;-1.75;92.01
72114;SHT31;59989;46.220;19.888;2022-12-18T00:31:04;-1.83;92.06
72114;SHT31;59989;46.220;19.888;2022-12-18T00:34:10;-1.85;91.94
72114;SHT31;59989;46.220;19.888;2022-12-18T00:37:14;-1.87;92.06
72114;SHT31;59989;46.220;19.888;2022-12-18T00:40:25;-1.93;92.17
72114;SHT31;59989;46.220;19.888;2022-12-18T00:43:28;-1.94;92.35
72114;SHT31;59989;46.220;19.888;2022-12-18T00:46:31;-1.94;92.33
72114;SHT31;59989;46.220;19.888;2022-12-18T00:49:34;-1.99;92.49
72114;SHT31;59989;46.220;19.888;2022-12-18T00:52:36;-2.03;92.54
72114;SHT31;59989;46.220;19.888;2022-12-18T00:55:42;-2.00;92.52
72114;SHT31;59989;46.220;19.888;2022-12-18T00:58:45;-2.04;92.50
72114;SHT31;59989;46.220;19.888;2022-12-18T01:01:47;-2.13;92.63
72114;SHT31;59989;46.220;19.888;2022-12-18T01:04:50;-2.17;92.55
72114;SHT31;59989;46.220;19.888;2022-12-18T01:07:55;-2.15;92.70
72114;SHT31;59989;46.220;19.888;2022-12-18T01:10:57;-2.07;92.33
72114;SHT31;59989;46.220;19.888;2022-12-18T01:14:00;-2.06;92.35
72114;SHT31;59989;46.220;19.888;2022-12-18T01:17:02;-2.07;92.53
72114;SHT31;59989;46.220;19.888;2022-12-18T01:20:09;-2.07;92.53
72114;SHT31;59989;46.220;19.888;2022-12-18T01:23:13;-2.09;92.27
72114;SHT31;59989;46.220;19.888;2022-12-18T01:26:16;-2.04;92.15
72114;SHT31;59989;46.220;19.888;2022-12-18T01:29:18;-2.07;91.98
72114;SHT31;59989;46.220;19.888;2022-12-18T01:32:20;-2.07;91.95
72114;SHT31;59989;46.220;19.888;2022-12-18T01:35:24;-2.10;91.95
72114;SHT31;59989;46.220;19.888;2022-12-18T01:38:28;-2.07;91.88
72114;SHT31;59989;46.220;19.888;2022-12-18T01:41:33;-2.06;91.92
72114;SHT31;59989;46.220;19.888;2022-12-18T01:48:07;-1.91;92.10
72114;SHT31;59989;46.220;19.888;2022-12-18T01:51:12;-1.90;92.21
72114;SHT31;59989;46.220;19.888;2022-12-18T01:54:15;-1.91;92.06
72114;SHT31;59989;46.220;19.888;2022-12-18T01:57:18;-1.89;91.90
72114;SHT31;59989;46.220;19.888;2022-12-18T02:00:22;-1.78;91.97
72114;SHT31;59989;46.220;19.888;2022-12-18T02:03:26;-1.69;91.79
72114;SHT31;59989;46.220;19.888;2022-12-18T02:06:34;-1.59;91.61
72114;SHT31;59989;46.220;19.888;2022-12-18T02:09:48;-1.58;91.37
72114;SHT31;59989;46.220;19.888;2022-12-18T02:13:07;-1.56;91.31
72114;SHT31;59989;46.220;19.888;2022-12-18T02:16:25;-1.55;91.37
72114;SHT31;59989;46.220;19.888;2022-12-18T02:20:01;-1.52;91.16
72114;SHT31;59989;46.220;19.888;2022-12-18T02:23:35;-1.49;90.57
72114;SHT31;59989;46.220;19.888;2022-12-18T02:26:38;-1.51;90.08
72114;SHT31;59989;46.220;19.888;2022-12-18T02:29:48;-1.49;90.50
72114;SHT31;59989;46.220;19.888;2022-12-18T02:33:00;-1.47;90.15
72114;SHT31;59989;46.220;19.888;2022-12-18T02:36:05;-1.45;90.11
72114;SHT31;59989;46.220;19.888;2022-12-18T02:39:10;-1.44;90.33
72114;SHT31;59989;46.220;19.888;2022-12-18T02:42:20;-1.42;90.06
72114;SHT31;59989;46.220;19.888;2022-12-18T02:45:23;-1.40;90.04
72114;SHT31;59989;46.220;19.888;2022-12-18T02:48:34;-1.40;89.67
72114;SHT31;59989;46.220;19.888;2022-12-18T02:52:04;-1.37;90.09
72114;SHT31;59989;46.220;19.888;2022-12-18T02:55:28;-1.32;90.35
72114;SHT31;59989;46.220;19.888;2022-12-18T02:58:59;-1.34;89.70
72114;SHT31;59989;46.220;19.888;2022-12-18T03:05:23;-1.32;89.82
72114;SHT31;59989;46.220;19.888;2022-12-18T03:08:31;-1.30;90.25
72114;SHT31;59989;46.220;19.888;2022-12-18T03:11:40;-1.31;89.74
72114;SHT31;59989;46.220;19.888;2022-12-18T03:18:08;-1.31;89.83
72114;SHT31;59989;46.220;19.888;2022-12-18T03:21:14;-1.35;89.93
72114;SHT31;59989;46.220;19.888;2022-12-18T03:24:21;-1.28;90.45
72114;SHT31;59989;46.220;19.888;2022-12-18T03:27:26;-1.25;90.09
72114;SHT31;59989;46.220;19.888;2022-12-18T03:30:33;-1.24;90.15
72114;SHT31;59989;46.220;19.888;2022-12-18T03:33:47;-1.21;90.21
72114;SHT31;59989;46.220;19.888;2022-12-18T03:36:54;-1.20;90.43
72114;SHT31;59989;46.220;19.888;2022-12-18T03:39:58;-1.15;90.20
72114;SHT31;59989;46.220;19.888;2022-12-18T03:43:09;-1.17;90.08
72114;SHT31;59989;46.220;19.888;2022-12-18T03:49:41;-1.12;90.15
72114;SHT31;59989;46.220;19.888;2022-12-18T03:53:00;-1.08;90.52
72114;SHT31;59989;46.220;19.888;2022-12-18T03:56:07;-1.05;90.54
72114;SHT31;59989;46.220;19.888;2022-12-18T03:59:19;-1.04;90.50
72114;SHT31;59989;46.220;19.888;2022-12-18T04:02:23;-1.04;90.55
72114;SHT31;59989;46.220;19.888;2022-12-18T04:05:29;-1.04;90.69
72114;SHT31;59989;46.220;19.888;2022-12-18T04:08:33;-1.04;90.81
72114;SHT31;59989;46.220;19.888;2022-12-18T04:11:42;-1.04;90.84
72114;SHT31;59989;46.220;19.888;2022-12-18T04:14:49;-1.01;90.96
72114;SHT31;59989;46.220;19.888;2022-12-18T04:17:52;-1.01;90.63
72114;SHT31;59989;46.220;19.888;2022-12-18T04:20:57;-1.01;90.61
72114;SHT31;59989;46.220;19.888;2022-12-18T04:24:01;-1.00;90.74
72114;SHT31;59989;46.220;19.888;2022-12-18T04:27:04;-1.01;90.95
72114;SHT31;59989;46.220;19.888;2022-12-18T04:30:13;-1.07;90.95
72114;SHT31;59989;46.220;19.888;2022-12-18T04:33:16;-1.10;91.03
72114;SHT31;59989;46.220;19.888;2022-12-18T04:36:18;-1.08;91.09
72114;SHT31;59989;46.220;19.888;2022-12-18T04:39:22;-1.03;91.11
72114;SHT31;59989;46.220;19.888;2022-12-18T04:42:27;-1.01;90.87
72114;SHT31;59989;46.220;19.888;2022-12-18T04:45:31;-1.03;91.04
72114;SHT31;59989;46.220;19.888;2022-12-18T04:48:34;-1.00;90.99
72114;SHT31;59989;46.220;19.888;2022-12-18T04:51:37;-1.03;90.70
72114;SHT31;59989;46.220;19.888;2022-12-18T04:54:40;-1.00;90.87
72114;SHT31;59989;46.220;19.888;2022-12-18T04:57:42;-0.99;91.10
72114;SHT31;59989;46.220;19.888;2022-12-18T05:00:45;-1.01;91.14
72114;SHT31;59989;46.220;19.888;2022-12-18T05:03:47;-1.04;91.06
72114;SHT31;59989;46.220;19.888;2022-12-18T05:06:50;-1.04;90.96
72114;SHT31;59989;46.220;19.888;2022-12-18T05:09:53;-1.00;91.17
72114;SHT31;59989;46.220;19.888;2022-12-18T05:12:55;-1.01;91.10
72114;SHT31;59989;46.220;19.888;2022-12-18T05:16:02;-1.04;91.04
72114;SHT31;59989;46.220;19.888;2022-12-18T05:19:05;-1.03;90.99
72114;SHT31;59989;46.220;19.888;2022-12-18T05:22:08;-1.05;91.17
72114;SHT31;59989;46.220;19.888;2022-12-18T05:25:10;-1.08;91.51
72114;SHT31;59989;46.220;19.888;2022-12-18T05:28:12;-1.11;91.79
72114;SHT31;59989;46.220;19.888;2022-12-18T05:31:15;-1.24;92.01
72114;SHT31;59989;46.220;19.888;2022-12-18T05:34:17;-1.28;92.35
72114;SHT31;59989;46.220;19.888;2022-12-18T05:37:20;-1.35;92.58
72114;SHT31;59989;46.220;19.888;2022-12-18T05:40:24;-1.42;92.68
72114;SHT31;59989;46.220;19.888;2022-12-18T05:43:27;-1.48;93.01
72114;SHT31;59989;46.220;19.888;2022-12-18T05:46:30;-1.54;93.08
72114;SHT31;59989;46.220;19.888;2022-12-18T05:49:32;-1.59;93.27
72114;SHT31;59989;46.220;19.888;2022-12-18T05:52:35;-1.61;93.46
72114;SHT31;59989;46.220;19.888;2022-12-18T05:55:39;-1.70;93.68
72114;SHT31;59989;46.220;19.888;2022-12-18T05:58:42;-1.72;93.76
72114;SHT31;59989;46.220;19.888;2022-12-18T06:01:45;-1.76;93.94
72114;SHT31;59989;46.220;19.888;2022-12-18T06:04:48;-1.76;94.05
72114;SHT31;59989;46.220;19.888;2022-12-18T06:07:51;-1.79;94.18
72114;SHT31;59989;46.220;19.888;2022-12-18T06:10:54;-1.79;94.23
72114;SHT31;59989;46.220;19.888;2022-12-18T06:13:57;-1.82;94.29
72114;SHT31;59989;46.220;19.888;2022-12-18T06:17:01;-1.89;94.40
72114;SHT31;59989;46.220;19.888;2022-12-18T06:20:04;-1.93;94.41
72114;SHT31;59989;46.220;19.888;2022-12-18T06:23:08;-2.01;94.45
72114;SHT31;59989;46.220;19.888;2022-12-18T06:26:12;-2.04;94.59
72114;SHT31;59989;46.220;19.888;2022-12-18T06:29:15;-2.09;94.61
72114;SHT31;59989;46.220;19.888;2022-12-18T06:32:17;-2.13;94.68
72114;SHT31;59989;46.220;19.888;2022-12-18T06:35:20;-2.13;94.79
72114;SHT31;59989;46.220;19.888;2022-12-18T06:38:23;-2.17;94.87
72114;SHT31;59989;46.220;19.888;2022-12-18T06:41:26;-2.13;94.92
72114;SHT31;59989;46.220;19.888;2022-12-18T06:44:29;-2.17;94.95
72114;SHT31;59989;46.220;19.888;2022-12-18T06:47:31;-2.27;94.91
72114;SHT31;59989;46.220;19.888;2022-12-18T06:50:34;-2.40;94.88
72114;SHT31;59989;46.220;19.888;2022-12-18T06:53:36;-2.37;94.83
72114;SHT31;59989;46.220;19.888;2022-12-18T06:56:39;-2.21;94.94
72114;SHT31;59989;46.220;19.888;2022-12-18T06:59:42;-2.11;95.12
72114;SHT31;59989;46.220;19.888;2022-12-18T07:02:44;-2.06;95.14
72114;SHT31;59989;46.220;19.888;2022-12-18T07:05:47;-2.04;95.19
72114;SHT31;59989;46.220;19.888;2022-12-18T07:08:52;-2.00;95.14
72114;SHT31;59989;46.220;19.888;2022-12-18T07:11:54;-1.91;95.06
72114;SHT31;59989;46.220;19.888;2022-12-18T07:14:58;-1.85;94.99
72114;SHT31;59989;46.220;19.888;2022-12-18T07:18:01;-1.72;94.96
72114;SHT31;59989;46.220;19.888;2022-12-18T07:21:06;-1.63;94.88
72114;SHT31;59989;46.220;19.888;2022-12-18T07:24:08;-1.54;94.77
72114;SHT31;59989;46.220;19.888;2022-12-18T07:27:11;-1.47;94.62
72114;SHT31;59989;46.220;19.888;2022-12-18T07:30:13;-1.35;94.37
72114;SHT31;59989;46.220;19.888;2022-12-18T07:33:16;-1.30;94.08
72114;SHT31;59989;46.220;19.888;2022-12-18T07:36:19;-1.28;93.98
72114;SHT31;59989;46.220;19.888;2022-12-18T07:39:24;-1.27;93.91
72114;SHT31;59989;46.220;19.888;2022-12-18T07:42:27;-1.20;93.81
72114;SHT31;59989;46.220;19.888;2022-12-18T07:45:32;-1.15;93.63
72114;SHT31;59989;46.220;19.888;2022-12-18T07:48:35;-1.10;93.61
72114;SHT31;59989;46.220;19.888;2022-12-18T07:51:37;-1.05;93.42
72114;SHT31;59989;46.220;19.888;2022-12-18T07:54:41;-0.94;93.26
72114;SHT31;59989;46.220;19.888;2022-12-18T07:57:43;-0.91;93.09
72114;SHT31;59989;46.220;19.888;2022-12-18T08:01:08;-0.83;92.75
72114;SHT31;59989;46.220;19.888;2022-12-18T08:04:12;-0.86;92.47
72114;SHT31;59989;46.220;19.888;2022-12-18T08:07:15;-0.76;92.34
72114;SHT31;59989;46.220;19.888;2022-12-18T08:10:17;-0.65;92.08
72114;SHT31;59989;46.220;19.888;2022-12-18T08:13:20;-0.56;91.63
72114;SHT31;59989;46.220;19.888;2022-12-18T08:16:23;-0.51;91.72
72114;SHT31;59989;46.220;19.888;2022-12-18T08:19:26;-0.43;91.42
72114;SHT31;59989;46.220;19.888;2022-12-18T08:22:28;-0.26;91.03
72114;SHT31;59989;46.220;19.888;2022-12-18T08:25:31;-0.22;90.54
72114;SHT31;59989;46.220;19.888;2022-12-18T08:28:34;-0.10;90.37
72114;SHT31;59989;46.220;19.888;2022-12-18T08:31:36;-0.13;89.77
72114;SHT31;59989;46.220;19.888;2022-12-18T08:34:39;-0.11;89.45
72114;SHT31;59989;46.220;19.888;2022-12-18T08:37:41;0.00;89.48
72114;SHT31;59989;46.220;19.888;2022-12-18T08:40:45;0.11;89.31
72114;SHT31;59989;46.220;19.888;2022-12-18T08:43:47;0.23;88.91
72114;SHT31;59989;46.220;19.888;2022-12-18T08:47:08;0.24;88.91
72114;SHT31;59989;46.220;19.888;2022-12-18T08:50:11;0.28;88.73
72114;SHT31;59989;46.220;19.888;2022-12-18T08:53:14;0.36;88.58
72114;SHT31;59989;46.220;19.888;2022-12-18T08:56:16;0.37;88.76
72114;SHT31;59989;46.220;19.888;2022-12-18T08:59:19;0.50;88.30
72114;SHT31;59989;46.220;19.888;2022-12-18T09:02:22;0.54;88.37
72114;SHT31;59989;46.220;19.888;2022-12-18T09:05:24;0.69;87.92
72114;SHT31;59989;46.220;19.888;2022-12-18T09:08:27;0.68;87.86
72114;SHT31;59989;46.220;19.888;2022-12-18T09:11:32;0.81;87.44
72114;SHT31;59989;46.220;19.888;2022-12-18T09:14:35;0.99;86.89
72114;SHT31;59989;46.220;19.888;2022-12-18T09:17:37;1.23;86.44
72114;SHT31;59989;46.220;19.888;2022-12-18T09:20:40;1.20;85.78
72114;SHT31;59989;46.220;19.888;2022-12-18T09:23:43;1.34;85.84
72114;SHT31;59989;46.220;19.888;2022-12-18T09:26:46;1.47;85.26
72114;SHT31;59989;46.220;19.888;2022-12-18T09:29:49;1.78;84.73
72114;SHT31;59989;46.220;19.888;2022-12-18T09:32:51;1.79;83.67
72114;SHT31;59989;46.220;19.888;2022-12-18T09:35:56;1.89;83.57
72114;SHT31;59989;46.220;19.888;2022-12-18T09:38:59;1.99;83.16
72114;SHT31;59989;46.220;19.888;2022-12-18T09:42:17;2.16;82.36
72114;SHT31;59989;46.220;19.888;2022-12-18T09:45:22;2.20;81.08
72114;SHT31;59989;46.220;19.888;2022-12-18T09:48:28;2.43;80.34
72114;SHT31;59989;46.220;19.888;2022-12-18T09:51:49;2.73;80.21
72114;SHT31;59989;46.220;19.888;2022-12-18T09:54:57;2.85;79.60
72114;SHT31;59989;46.220;19.888;2022-12-18T10:01:22;3.13;78.38
72114;SHT31;59989;46.220;19.888;2022-12-18T10:04:27;2.92;76.39
72114;SHT31;59989;46.220;19.888;2022-12-18T10:18:06;3.59;73.58
72114;SHT31;59989;46.220;19.888;2022-12-18T10:21:26;3.67;73.47
72114;SHT31;59989;46.220;19.888;2022-12-18T10:24:36;3.77;72.09
72114;SHT31;59989;46.220;19.888;2022-12-18T10:27:40;4.24;71.78
72114;SHT31;59989;46.220;19.888;2022-12-18T10:30:43;3.81;71.25
72114;SHT31;59989;46.220;19.888;2022-12-18T10:33:46;4.12;73.06
72114;SHT31;59989;46.220;19.888;2022-12-18T10:36:48;4.19;71.00
72114;SHT31;59989;46.220;19.888;2022-12-18T10:40:11;4.24;70.79
72114;SHT31;59989;46.220;19.888;2022-12-18T10:43:43;4.35;71.38
72114;SHT31;59989;46.220;19.888;2022-12-18T10:46:48;4.41;70.40
72114;SHT31;59989;46.220;19.888;2022-12-18T10:49:52;4.44;69.89
72114;SHT31;59989;46.220;19.888;2022-12-18T10:53:00;4.28;70.28
72114;SHT31;59989;46.220;19.888;2022-12-18T10:56:04;4.36;70.29
72114;SHT31;59989;46.220;19.888;2022-12-18T10:59:10;4.67;69.90
72114;SHT31;59989;46.220;19.888;2022-12-18T11:02:34;4.44;70.17
72114;SHT31;59989;46.220;19.888;2022-12-18T11:05:37;4.35;70.20
72114;SHT31;59989;46.220;19.888;2022-12-18T11:08:41;4.74;70.14
72114;SHT31;59989;46.220;19.888;2022-12-18T11:11:53;5.15;68.08
72114;SHT31;59989;46.220;19.888;2022-12-18T11:14:57;5.69;66.78
72114;SHT31;59989;46.220;19.888;2022-12-18T11:18:01;6.28;64.72
72114;SHT31;59989;46.220;19.888;2022-12-18T11:21:09;5.96;65.47
72114;SHT31;59989;46.220;19.888;2022-12-18T11:24:32;6.37;62.50
72114;SHT31;59989;46.220;19.888;2022-12-18T11:27:37;6.71;60.87
72114;SHT31;59989;46.220;19.888;2022-12-18T11:30:40;6.46;60.65
72114;SHT31;59989;46.220;19.888;2022-12-18T11:37:32;6.16;62.72
72114;SHT31;59989;46.220;19.888;2022-12-18T11:40:37;5.67;64.12
72114;SHT31;59989;46.220;19.888;2022-12-18T11:44:03;5.18;64.33
72114;SHT31;59989;46.220;19.888;2022-12-18T11:47:31;5.77;64.90
72114;SHT31;59989;46.220;19.888;2022-12-18T11:53:39;6.21;62.90
72114;SHT31;59989;46.220;19.888;2022-12-18T11:56:53;6.73;62.13
72114;SHT31;59989;46.220;19.888;2022-12-18T12:00:04;7.28;60.35
72114;SHT31;59989;46.220;19.888;2022-12-18T12:03:24;7.17;59.93
72114;SHT31;59989;46.220;19.888;2022-12-18T12:07:02;6.80;59.89
72114;SHT31;59989;46.220;19.888;2022-12-18T12:13:58;7.52;57.65
72114;SHT31;59989;46.220;19.888;2022-12-18T12:17:19;6.90;60.57
72114;SHT31;59989;46.220;19.888;2022-12-18T12:24:20;8.19;55.96
72114;SHT31;59989;46.220;19.888;2022-12-18T12:31:02;9.44;52.08
72114;SHT31;59989;46.220;19.888;2022-12-18T12:35:13;8.92;52.82
72114;SHT31;59989;46.220;19.888;2022-12-18T12:37:47;9.63;50.91
72114;SHT31;59989;46.220;19.888;2022-12-18T12:41:07;10.63;48.66
72114;SHT31;59989;46.220;19.888;2022-12-18T12:44:39;10.52;48.01
72114;SHT31;59989;46.220;19.888;2022-12-18T12:47:45;11.51;45.20
72114;SHT31;59989;46.220;19.888;2022-12-18T12:50:49;10.97;45.39
72114;SHT31;59989;46.220;19.888;2022-12-18T12:53:54;9.22;50.52
72114;SHT31;59989;46.220;19.888;2022-12-18T12:57:09;9.51;50.55
72114;SHT31;59989;46.220;19.888;2022-12-18T13:00:16;9.36;50.83
72114;SHT31;59989;46.220;19.888;2022-12-18T13:13:51;9.33;50.19
72114;SHT31;59989;46.220;19.888;2022-12-18T13:20:21;9.19;51.93
72114;SHT31;59989;46.220;19.888;2022-12-18T13:23:38;9.36;50.76
72114;SHT31;59989;46.220;19.888;2022-12-18T13:26:42;8.95;52.66
72114;SHT31;59989;46.220;19.888;2022-12-18T13:29:45;8.93;52.03
72114;SHT31;59989;46.220;19.888;2022-12-18T13:36:29;6.61;57.89
72114;SHT31;59989;46.220;19.888;2022-12-18T13:39:33;5.63;61.44
72114;SHT31;59989;46.220;19.888;2022-12-18T13:42:40;5.04;64.46
72114;SHT31;59989;46.220;19.888;2022-12-18T13:46:31;4.70;65.58
72114;SHT31;59989;46.220;19.888;2022-12-18T13:49:44;4.34;67.00
72114;SHT31;59989;46.220;19.888;2022-12-18T13:52:46;4.34;68.64
72114;SHT31;59989;46.220;19.888;2022-12-18T13:55:49;3.94;69.80
72114;SHT31;59989;46.220;19.888;2022-12-18T14:02:27;3.42;70.26
72114;SHT31;59989;46.220;19.888;2022-12-18T14:05:32;3.08;71.39
72114;SHT31;59989;46.220;19.888;2022-12-18T14:08:39;2.84;72.78
72114;SHT31;59989;46.220;19.888;2022-12-18T14:11:48;2.62;73.74
72114;SHT31;59989;46.220;19.888;2022-12-18T14:14:52;2.46;74.50
72114;SHT31;59989;46.220;19.888;2022-12-18T14:21:27;2.23;75.67
72114;SHT31;59989;46.220;19.888;2022-12-18T14:24:31;2.09;76.42
72114;SHT31;59989;46.220;19.888;2022-12-18T14:27:37;1.94;76.54
72114;SHT31;59989;46.220;19.888;2022-12-18T14:30:41;1.84;77.09
72114;SHT31;59989;46.220;19.888;2022-12-18T14:33:44;1.72;77.99
72114;SHT31;59989;46.220;19.888;2022-12-18T14:36:53;1.53;78.76
72114;SHT31;59989;46.220;19.888;2022-12-18T14:39:59;1.42;79.42
72114;SHT31;59989;46.220;19.888;2022-12-18T14:43:12;1.29;80.58
72114;SHT31;59989;46.220;19.888;2022-12-18T14:46:35;1.10;80.76
72114;SHT31;59989;46.220;19.888;2022-12-18T14:49:41;1.00;81.07
72114;SHT31;59989;46.220;19.888;2022-12-18T14:52:44;0.93;81.29
72114;SHT31;59989;46.220;19.888;2022-12-18T14:55:48;0.84;81.72
72114;SHT31;59989;46.220;19.888;2022-12-18T14:58:56;0.71;81.86
72114;SHT31;59989;46.220;19.888;2022-12-18T15:02:19;0.51;82.32
72114;SHT31;59989;46.220;19.888;2022-12-18T15:05:31;0.37;82.44
72114;SHT31;59989;46.220;19.888;2022-12-18T15:08:36;0.23;82.74
72114;SHT31;59989;46.220;19.888;2022-12-18T15:14:44;-0.03;84.15
72114;SHT31;59989;46.220;19.888;2022-12-18T15:17:47;-0.15;85.34
72114;SHT31;59989;46.220;19.888;2022-12-18T15:20:58;-0.26;85.08
72114;SHT31;59989;46.220;19.888;2022-12-18T15:24:03;-0.28;86.46
72114;SHT31;59989;46.220;19.888;2022-12-18T15:30:30;-0.53;86.75
72114;SHT31;59989;46.220;19.888;2022-12-18T15:33:36;-0.62;86.79
72114;SHT31;59989;46.220;19.888;2022-12-18T15:36:41;-0.72;86.82
72114;SHT31;59989;46.220;19.888;2022-12-18T15:39:43;-0.82;87.33
72114;SHT31;59989;46.220;19.888;2022-12-18T15:42:46;-0.91;88.09
72114;SHT31;59989;46.220;19.888;2022-12-18T15:46:13;-1.04;88.55
72114;SHT31;59989;46.220;19.888;2022-12-18T15:49:16;-1.07;88.82
72114;SHT31;59989;46.220;19.888;2022-12-18T15:52:18;-1.11;89.07
72114;SHT31;59989;46.220;19.888;2022-12-18T15:55:28;-1.20;89.30
72114;SHT31;59989;46.220;19.888;2022-12-18T15:58:49;-1.30;89.48
72114;SHT31;59989;46.220;19.888;2022-12-18T16:01:52;-1.32;89.77
72114;SHT31;59989;46.220;19.888;2022-12-18T16:04:56;-1.38;90.09
72114;SHT31;59989;46.220;19.888;2022-12-18T16:07:59;-1.48;90.40
72114;SHT31;59989;46.220;19.888;2022-12-18T16:11:01;-1.49;90.58
72114;SHT31;59989;46.220;19.888;2022-12-18T16:14:21;-1.54;90.77
72114;SHT31;59989;46.220;19.888;2022-12-18T16:17:25;-1.59;91.01
72114;SHT31;59989;46.220;19.888;2022-12-18T16:20:28;-1.68;91.18
72114;SHT31;59989;46.220;19.888;2022-12-18T16:23:31;-1.72;91.57
72114;SHT31;59989;46.220;19.888;2022-12-18T16:26:33;-1.83;91.77
72114;SHT31;59989;46.220;19.888;2022-12-18T16:29:36;-1.87;91.97
72114;SHT31;59989;46.220;19.888;2022-12-18T16:32:39;-1.89;92.27
72114;SHT31;59989;46.220;19.888;2022-12-18T16:35:42;-1.90;92.41
72114;SHT31;59989;46.220;19.888;2022-12-18T16:38:44;-1.97;92.47
72114;SHT31;59989;46.220;19.888;2022-12-18T16:41:47;-2.04;92.66
72114;SHT31;59989;46.220;19.888;2022-12-18T16:44:50;-2.11;92.81
72114;SHT31;59989;46.220;19.888;2022-12-18T16:47:52;-2.13;92.93
72114;SHT31;59989;46.220;19.888;2022-12-18T16:51:01;-2.14;93.20
72114;SHT31;59989;46.220;19.888;2022-12-18T16:54:05;-2.27;93.20
72114;SHT31;59989;46.220;19.888;2022-12-18T16:57:17;-2.37;93.47
72114;SHT31;59989;46.220;19.888;2022-12-18T17:00:23;-2.38;93.58
72114;SHT31;59989;46.220;19.888;2022-12-18T17:03:26;-2.45;93.70
72114;SHT31;59989;46.220;19.888;2022-12-18T17:06:32;-2.48;93.83
72114;SHT31;59989;46.220;19.888;2022-12-18T17:09:35;-2.51;93.92
72114;SHT31;59989;46.220;19.888;2022-12-18T17:12:38;-2.55;94.04
72114;SHT31;59989;46.220;19.888;2022-12-18T17:15:41;-2.64;94.02
72114;SHT31;59989;46.220;19.888;2022-12-18T17:18:44;-2.64;94.08
72114;SHT31;59989;46.220;19.888;2022-12-18T17:21:48;-2.66;94.26
72114;SHT31;59989;46.220;19.888;2022-12-18T17:24:51;-2.66;94.40
72114;SHT31;59989;46.220;19.888;2022-12-18T17:27:55;-2.72;94.35
72114;SHT31;59989;46.220;19.888;2022-12-18T17:30:57;-2.80;94.43
72114;SHT31;59989;46.220;19.888;2022-12-18T17:34:01;-2.86;94.56
72114;SHT31;59989;46.220;19.888;2022-12-18T17:37:04;-2.89;94.47
72114;SHT31;59989;46.220;19.888;2022-12-18T17:40:07;-2.97;94.61
72114;SHT31;59989;46.220;19.888;2022-12-18T17:43:10;-3.01;94.68
72114;SHT31;59989;46.220;19.888;2022-12-18T17:46:13;-3.00;94.77
72114;SHT31;59989;46.220;19.888;2022-12-18T17:49:17;-2.97;94.90
72114;SHT31;59989;46.220;19.888;2022-12-18T17:52:20;-3.03;94.91
72114;SHT31;59989;46.220;19.888;2022-12-18T17:55:23;-3.11;94.92
72114;SHT31;59989;46.220;19.888;2022-12-18T17:58:27;-3.17;94.95
72114;SHT31;59989;46.220;19.888;2022-12-18T18:01:30;-3.23;95.14
72114;SHT31;59989;46.220;19.888;2022-12-18T18:04:33;-3.27;95.10
72114;SHT31;59989;46.220;19.888;2022-12-18T18:07:36;-3.28;95.05
72114;SHT31;59989;46.220;19.888;2022-12-18T18:10:39;-3.28;95.02
72114;SHT31;59989;46.220;19.888;2022-12-18T18:13:42;-3.36;95.12
72114;SHT31;59989;46.220;19.888;2022-12-18T18:17:04;-3.37;95.29
72114;SHT31;59989;46.220;19.888;2022-12-18T18:20:07;-3.43;95.21
72114;SHT31;59989;46.220;19.888;2022-12-18T18:23:10;-3.48;95.27
72114;SHT31;59989;46.220;19.888;2022-12-18T18:26:14;-3.48;95.30
72114;SHT31;59989;46.220;19.888;2022-12-18T18:29:20;-3.45;95.35
72114;SHT31;59989;46.220;19.888;2022-12-18T18:32:23;-3.41;95.38
72114;SHT31;59989;46.220;19.888;2022-12-18T18:35:26;-3.48;95.35
72114;SHT31;59989;46.220;19.888;2022-12-18T18:38:50;-3.44;95.46
72114;SHT31;59989;46.220;19.888;2022-12-18T18:41:53;-3.44;95.41
72114;SHT31;59989;46.220;19.888;2022-12-18T18:44:56;-3.28;95.45
72114;SHT31;59989;46.220;19.888;2022-12-18T18:47:59;-3.21;95.59
72114;SHT31;59989;46.220;19.888;2022-12-18T18:51:09;-3.31;95.64
72114;SHT31;59989;46.220;19.888;2022-12-18T18:54:13;-3.43;95.71
72114;SHT31;59989;46.220;19.888;2022-12-18T18:57:16;-3.44;95.69
72114;SHT31;59989;46.220;19.888;2022-12-18T19:00:22;-3.64;95.48
72114;SHT31;59989;46.220;19.888;2022-12-18T19:03:27;-3.66;95.47
72114;SHT31;59989;46.220;19.888;2022-12-18T19:06:31;-3.72;95.61
72114;SHT31;59989;46.220;19.888;2022-12-18T19:09:35;-3.71;95.62
72114;SHT31;59989;46.220;19.888;2022-12-18T19:12:37;-3.75;95.64
72114;SHT31;59989;46.220;19.888;2022-12-18T19:16:06;-3.72;95.71
72114;SHT31;59989;46.220;19.888;2022-12-18T19:19:12;-3.76;95.67
72114;SHT31;59989;46.220;19.888;2022-12-18T19:22:14;-3.68;95.74
72114;SHT31;59989;46.220;19.888;2022-12-18T19:25:17;-3.68;95.87
72114;SHT31;59989;46.220;19.888;2022-12-18T19:28:21;-3.78;95.71
72114;SHT31;59989;46.220;19.888;2022-12-18T19:31:30;-3.62;96.01
72114;SHT31;59989;46.220;19.888;2022-12-18T19:34:38;-3.61;96.04
72114;SHT31;59989;46.220;19.888;2022-12-18T19:37:41;-3.72;95.97
72114;SHT31;59989;46.220;19.888;2022-12-18T19:40:44;-3.72;95.88
72114;SHT31;59989;46.220;19.888;2022-12-18T19:43:48;-3.74;95.93
72114;SHT31;59989;46.220;19.888;2022-12-18T19:46:51;-3.72;95.99
72114;SHT31;59989;46.220;19.888;2022-12-18T19:49:54;-3.78;96.06
72114;SHT31;59989;46.220;19.888;2022-12-18T19:52:56;-3.75;96.13
72114;SHT31;59989;46.220;19.888;2022-12-18T19:56:11;-3.87;96.08
72114;SHT31;59989;46.220;19.888;2022-12-18T19:59:14;-3.93;96.01
72114;SHT31;59989;46.220;19.888;2022-12-18T20:02:17;-3.90;96.13
72114;SHT31;59989;46.220;19.888;2022-12-18T20:05:23;-3.92;96.21
72114;SHT31;59989;46.220;19.888;2022-12-18T20:08:26;-3.92;96.10
72114;SHT31;59989;46.220;19.888;2022-12-18T20:11:30;-3.93;96.16
72114;SHT31;59989;46.220;19.888;2022-12-18T20:14:32;-4.14;96.11
72114;SHT31;59989;46.220;19.888;2022-12-18T20:17:35;-4.20;95.97
72114;SHT31;59989;46.220;19.888;2022-12-18T20:20:38;-4.20;96.06
72114;SHT31;59989;46.220;19.888;2022-12-18T20:23:41;-4.26;96.03
72114;SHT31;59989;46.220;19.888;2022-12-18T20:26:45;-4.36;96.04
72114;SHT31;59989;46.220;19.888;2022-12-18T20:29:47;-4.20;96.13
72114;SHT31;59989;46.220;19.888;2022-12-18T20:32:50;-4.30;96.09
72114;SHT31;59989;46.220;19.888;2022-12-18T20:35:53;-4.38;96.11
72114;SHT31;59989;46.220;19.888;2022-12-18T20:38:56;-4.54;96.00